sensor_id;sensor_type;location;lat;lon;timestamp;pressure;altitude;pressure_sealevel;temperature;humidity
61318;BME280;47201;40.428;-8.436;2022-10-31T00:00:00;100427.50;;;17.63;100.00
61318;BME280;47201;40.428;-8.436;2022-10-31T00:02:01;100446.81;;;17.65;100.00
61318;BME280;47201;40.428;-8.436;2022-10-31T00:04:03;100447.56;;;17.68;100.00
61318;BME280;47201;40.428;-8.436;2022-10-31T00:06:04;100450.38;;;17.64;100.00
61318;BME280;47201;40.428;-8.436;2022-10-31T00:08:04;100451.13;;;17.67;100.00
61318;BME280;47201;40.428;-8.436;2022-10-31T00:10:06;100447.50;;;17.70;100.00
61318;BME280;47201;40.428;-8.436;2022-10-31T00:12:06;100447.38;;;17.73;100.00
61318;BME280;47201;40.428;-8.436;2022-10-31T00:14:07;100441.19;;;17.74;100.00
61318;BME280;47201;40.428;-8.436;2022-10-31T00:16:22;100449.88;;;17.77;100.00
61318;BME280;47201;40.428;-8.436;2022-10-31T00:18:23;100456.06;;;17.76;100.00
61318;BME280;47201;40.428;-8.436;2022-10-31T00:20:24;100454.41;;;17.74;100.00
61318;BME280;47201;40.428;-8.436;2022-10-31T00:22:24;100450.63;;;17.81;100.00
61318;BME280;47201;40.428;-8.436;2022-10-31T00:24:25;100454.25;;;17.79;100.00
61318;BME280;47201;40.428;-8.436;2022-10-31T00:26:30;100452.41;;;17.81;100.00
61318;BME280;47201;40.428;-8.436;2022-10-31T00:28:33;100450.91;;;17.73;100.00
61318;BME280;47201;40.428;-8.436;2022-10-31T00:30:34;100456.44;;;17.66;100.00
61318;BME280;47201;40.428;-8.436;2022-10-31T00:32:34;100464.66;;;17.58;100.00
61318;BME280;47201;40.428;-8.436;2022-10-31T00:34:35;100465.78;;;17.51;100.00
61318;BME280;47201;40.428;-8.436;2022-10-31T00:36:36;100458.00;;;17.46;100.00
61318;BME280;47201;40.428;-8.436;2022-10-31T00:38:36;100455.78;;;17.34;100.00
61318;BME280;47201;40.428;-8.436;2022-10-31T00:40:37;100450.91;;;17.21;100.00
61318;BME280;47201;40.428;-8.436;2022-10-31T00:42:39;100447.66;;;17.13;100.00
61318;BME280;47201;40.428;-8.436;2022-10-31T00:44:41;100450.00;;;16.95;100.00
61318;BME280;47201;40.428;-8.436;2022-10-31T00:46:42;100449.94;;;16.97;100.00
61318;BME280;47201;40.428;-8.436;2022-10-31T00:48:43;100449.94;;;16.97;100.00
61318;BME280;47201;40.428;-8.436;2022-10-31T00:50:43;100448.13;;;16.99;100.00
61318;BME280;47201;40.428;-8.436;2022-10-31T00:52:44;100447.09;;;17.03;100.00
61318;BME280;47201;40.428;-8.436;2022-10-31T00:54:45;100444.41;;;17.05;100.00
61318;BME280;47201;40.428;-8.436;2022-10-31T00:56:46;100436.38;;;17.08;100.00
61318;BME280;47201;40.428;-8.436;2022-10-31T00:58:47;100434.44;;;17.13;100.00
61318;BME280;47201;40.428;-8.436;2022-10-31T01:00:48;100435.19;;;17.17;100.00
61318;BME280;47201;40.428;-8.436;2022-10-31T01:02:55;100438.56;;;17.22;100.00
61318;BME280;47201;40.428;-8.436;2022-10-31T01:04:55;100430.59;;;17.23;100.00
61318;BME280;47201;40.428;-8.436;2022-10-31T01:06:56;100423.44;;;17.27;100.00
61318;BME280;47201;40.428;-8.436;2022-10-31T01:08:57;100424.09;;;17.34;100.00
61318;BME280;47201;40.428;-8.436;2022-10-31T01:13:04;100418.19;;;17.25;100.00
61318;BME280;47201;40.428;-8.436;2022-10-31T01:15:05;100416.00;;;17.11;100.00
61318;BME280;47201;40.428;-8.436;2022-10-31T01:17:06;100421.81;;;16.96;100.00
61318;BME280;47201;40.428;-8.436;2022-10-31T01:19:07;100422.53;;;16.73;100.00
61318;BME280;47201;40.428;-8.436;2022-10-31T01:21:11;100416.03;;;16.55;100.00
61318;BME280;47201;40.428;-8.436;2022-10-31T01:23:12;100407.19;;;16.27;100.00
61318;BME280;47201;40.428;-8.436;2022-10-31T01:25:15;100410.38;;;16.09;100.00
61318;BME280;47201;40.428;-8.436;2022-10-31T01:27:15;100416.81;;;15.98;100.00
61318;BME280;47201;40.428;-8.436;2022-10-31T01:29:16;100410.06;;;15.90;100.00
61318;BME280;47201;40.428;-8.436;2022-10-31T01:31:19;100414.72;;;15.78;100.00
61318;BME280;47201;40.428;-8.436;2022-10-31T01:33:20;100407.13;;;15.67;100.00
61318;BME280;47201;40.428;-8.436;2022-10-31T01:35:21;100405.56;;;15.60;100.00
61318;BME280;47201;40.428;-8.436;2022-10-31T01:37:21;100398.72;;;15.53;100.00
61318;BME280;47201;40.428;-8.436;2022-10-31T01:39:22;100396.28;;;15.45;100.00
61318;BME280;47201;40.428;-8.436;2022-10-31T01:41:30;100393.81;;;15.39;100.00
61318;BME280;47201;40.428;-8.436;2022-10-31T01:45:50;100386.03;;;15.34;100.00
61318;BME280;47201;40.428;-8.436;2022-10-31T01:47:51;100395.81;;;15.29;100.00
61318;BME280;47201;40.428;-8.436;2022-10-31T01:49:55;100391.50;;;15.27;100.00
61318;BME280;47201;40.428;-8.436;2022-10-31T01:54:06;100396.06;;;15.20;100.00
61318;BME280;47201;40.428;-8.436;2022-10-31T01:56:08;100395.81;;;15.29;100.00
61318;BME280;47201;40.428;-8.436;2022-10-31T01:58:18;100394.03;;;15.31;100.00
61318;BME280;47201;40.428;-8.436;2022-10-31T02:00:21;100394.25;;;15.22;100.00
61318;BME280;47201;40.428;-8.436;2022-10-31T02:02:23;100402.03;;;15.27;100.00
61318;BME280;47201;40.428;-8.436;2022-10-31T02:04:25;100395.94;;;15.25;100.00
61318;BME280;47201;40.428;-8.436;2022-10-31T02:06:40;100393.38;;;15.23;100.00
61318;BME280;47201;40.428;-8.436;2022-10-31T02:08:46;100399.53;;;15.22;100.00
61318;BME280;47201;40.428;-8.436;2022-10-31T02:10:48;100401.38;;;15.18;100.00
61318;BME280;47201;40.428;-8.436;2022-10-31T02:12:55;100386.47;;;15.17;100.00
61318;BME280;47201;40.428;-8.436;2022-10-31T02:14:58;100385.63;;;15.15;100.00
61318;BME280;47201;40.428;-8.436;2022-10-31T02:17:00;100390.97;;;15.14;100.00
61318;BME280;47201;40.428;-8.436;2022-10-31T02:19:02;100396.28;;;15.12;100.00
61318;BME280;47201;40.428;-8.436;2022-10-31T02:21:19;100405.91;;;15.12;100.00
61318;BME280;47201;40.428;-8.436;2022-10-31T02:26:10;100356.78;;;15.12;100.00
61318;BME280;47201;40.428;-8.436;2022-10-31T02:30:23;100374.75;;;14.96;100.00
61318;BME280;47201;40.428;-8.436;2022-10-31T02:36:59;100359.19;;;14.87;100.00
61318;BME280;47201;40.428;-8.436;2022-10-31T02:39:27;100349.59;;;14.83;100.00
61318;BME280;47201;40.428;-8.436;2022-10-31T02:45:59;100311.06;;;14.82;100.00
61318;BME280;47201;40.428;-8.436;2022-10-31T02:48:10;100297.25;;;14.73;100.00
61318;BME280;47201;40.428;-8.436;2022-10-31T02:50:31;100299.81;;;14.75;100.00
61318;BME280;47201;40.428;-8.436;2022-10-31T02:52:34;100283.25;;;14.71;100.00
61318;BME280;47201;40.428;-8.436;2022-10-31T02:54:37;100289.47;;;14.69;100.00
61318;BME280;47201;40.428;-8.436;2022-10-31T02:56:38;100293.00;;;14.68;100.00
61318;BME280;47201;40.428;-8.436;2022-10-31T02:58:45;100285.00;;;14.72;100.00
61318;BME280;47201;40.428;-8.436;2022-10-31T03:03:20;100267.63;;;14.64;100.00
61318;BME280;47201;40.428;-8.436;2022-10-31T03:07:53;100282.50;;;14.65;100.00
61318;BME280;47201;40.428;-8.436;2022-10-31T03:12:39;100244.81;;;14.66;100.00
61318;BME280;47201;40.428;-8.436;2022-10-31T03:14:53;100249.16;;;14.67;100.00
61318;BME280;47201;40.428;-8.436;2022-10-31T03:16:59;100254.38;;;14.68;100.00
61318;BME280;47201;40.428;-8.436;2022-10-31T03:19:31;100262.22;;;14.71;100.00
61318;BME280;47201;40.428;-8.436;2022-10-31T03:21:43;100258.75;;;14.69;100.00
61318;BME280;47201;40.428;-8.436;2022-10-31T03:23:46;100256.94;;;14.71;100.00
61318;BME280;47201;40.428;-8.436;2022-10-31T03:25:54;100258.56;;;14.75;100.00
61318;BME280;47201;40.428;-8.436;2022-10-31T03:28:02;100250.63;;;14.79;100.00
61318;BME280;47201;40.428;-8.436;2022-10-31T03:30:05;100256.72;;;14.81;100.00
61318;BME280;47201;40.428;-8.436;2022-10-31T03:32:27;100268.91;;;14.83;100.00
61318;BME280;47201;40.428;-8.436;2022-10-31T03:34:31;100273.41;;;14.80;100.00
61318;BME280;47201;40.428;-8.436;2022-10-31T03:36:34;100271.72;;;14.75;100.00
61318;BME280;47201;40.428;-8.436;2022-10-31T03:38:41;100272.53;;;14.79;100.00
61318;BME280;47201;40.428;-8.436;2022-10-31T03:40:46;100274.22;;;14.82;100.00
61318;BME280;47201;40.428;-8.436;2022-10-31T03:42:57;100280.28;;;14.84;100.00
61318;BME280;47201;40.428;-8.436;2022-10-31T03:47:08;100274.84;;;14.91;100.00
61318;BME280;47201;40.428;-8.436;2022-10-31T03:49:09;100280.78;;;14.98;100.00
61318;BME280;47201;40.428;-8.436;2022-10-31T03:55:41;100280.31;;;15.17;100.00
61318;BME280;47201;40.428;-8.436;2022-10-31T03:57:53;100274.03;;;15.22;100.00
61318;BME280;47201;40.428;-8.436;2022-10-31T04:00:04;100273.97;;;15.24;100.00
61318;BME280;47201;40.428;-8.436;2022-10-31T04:02:12;100272.19;;;15.25;100.00
61318;BME280;47201;40.428;-8.436;2022-10-31T04:04:16;100265.19;;;15.23;100.00
61318;BME280;47201;40.428;-8.436;2022-10-31T04:06:18;100264.34;;;15.23;100.00
61318;BME280;47201;40.428;-8.436;2022-10-31T04:08:25;100263.34;;;15.27;100.00
61318;BME280;47201;40.428;-8.436;2022-10-31T04:10:29;100260.84;;;15.22;100.00
61318;BME280;47201;40.428;-8.436;2022-10-31T04:12:33;100259.06;;;15.23;100.00
61318;BME280;47201;40.428;-8.436;2022-10-31T04:14:48;100267.03;;;15.21;100.00
61318;BME280;47201;40.428;-8.436;2022-10-31T04:16:49;100264.59;;;15.14;100.00
61318;BME280;47201;40.428;-8.436;2022-10-31T04:18:50;100269.97;;;15.11;100.00
61318;BME280;47201;40.428;-8.436;2022-10-31T04:21:03;100283.91;;;15.14;100.00
61318;BME280;47201;40.428;-8.436;2022-10-31T04:23:05;100291.97;;;15.06;100.00
61318;BME280;47201;40.428;-8.436;2022-10-31T04:25:12;100288.50;;;15.06;100.00
61318;BME280;47201;40.428;-8.436;2022-10-31T04:27:13;100285.88;;;15.06;100.00
61318;BME280;47201;40.428;-8.436;2022-10-31T04:29:13;100287.63;;;15.05;100.00
61318;BME280;47201;40.428;-8.436;2022-10-31T04:31:14;100291.00;;;15.11;100.00
61318;BME280;47201;40.428;-8.436;2022-10-31T04:33:17;100297.97;;;15.12;100.00
61318;BME280;47201;40.428;-8.436;2022-10-31T04:35:20;100297.19;;;15.10;100.00
61318;BME280;47201;40.428;-8.436;2022-10-31T04:37:20;100298.91;;;15.11;100.00
61318;BME280;47201;40.428;-8.436;2022-10-31T04:39:22;100303.97;;;15.18;100.00
61318;BME280;47201;40.428;-8.436;2022-10-31T04:41:39;100314.66;;;15.12;100.00
61318;BME280;47201;40.428;-8.436;2022-10-31T04:43:47;100319.81;;;15.15;100.00
61318;BME280;47201;40.428;-8.436;2022-10-31T04:45:48;100324.13;;;15.19;100.00
61318;BME280;47201;40.428;-8.436;2022-10-31T04:47:49;100330.22;;;15.20;100.00
61318;BME280;47201;40.428;-8.436;2022-10-31T04:49:50;100335.56;;;15.18;100.00
61318;BME280;47201;40.428;-8.436;2022-10-31T04:51:51;100334.78;;;15.15;100.00
61318;BME280;47201;40.428;-8.436;2022-10-31T04:53:52;100344.34;;;15.19;100.00
61318;BME280;47201;40.428;-8.436;2022-10-31T04:56:02;100340.03;;;15.15;100.00
61318;BME280;47201;40.428;-8.436;2022-10-31T04:58:12;100336.63;;;15.11;100.00
61318;BME280;47201;40.428;-8.436;2022-10-31T05:00:14;100329.44;;;15.18;100.00
61318;BME280;47201;40.428;-8.436;2022-10-31T05:02:15;100328.53;;;15.19;100.00
61318;BME280;47201;40.428;-8.436;2022-10-31T05:04:21;100311.66;;;15.26;100.00
61318;BME280;47201;40.428;-8.436;2022-10-31T05:06:22;100301.94;;;15.28;100.00
61318;BME280;47201;40.428;-8.436;2022-10-31T05:08:22;100286.09;;;15.30;100.00
61318;BME280;47201;40.428;-8.436;2022-10-31T05:10:29;100274.81;;;15.26;100.00
61318;BME280;47201;40.428;-8.436;2022-10-31T05:12:32;100260.03;;;15.20;100.00
61318;BME280;47201;40.428;-8.436;2022-10-31T05:14:56;100256.38;;;15.26;100.00
61318;BME280;47201;40.428;-8.436;2022-10-31T05:17:15;100277.56;;;15.21;100.00
61318;BME280;47201;40.428;-8.436;2022-10-31T05:19:34;100316.38;;;15.13;100.00
61318;BME280;47201;40.428;-8.436;2022-10-31T05:21:53;100309.34;;;15.14;100.00
61318;BME280;47201;40.428;-8.436;2022-10-31T05:23:54;100309.94;;;15.25;100.00
61318;BME280;47201;40.428;-8.436;2022-10-31T05:25:57;100303.75;;;15.26;100.00
61318;BME280;47201;40.428;-8.436;2022-10-31T05:27:58;100307.97;;;15.33;100.00
61318;BME280;47201;40.428;-8.436;2022-10-31T05:29:59;100309.50;;;15.41;100.00
61318;BME280;47201;40.428;-8.436;2022-10-31T05:32:00;100308.50;;;15.45;100.00
61318;BME280;47201;40.428;-8.436;2022-10-31T05:34:19;100301.38;;;15.48;100.00
61318;BME280;47201;40.428;-8.436;2022-10-31T05:36:44;100297.59;;;15.57;100.00
61318;BME280;47201;40.428;-8.436;2022-10-31T05:38:48;100284.28;;;15.63;100.00
61318;BME280;47201;40.428;-8.436;2022-10-31T05:40:58;100278.78;;;15.71;100.00
61318;BME280;47201;40.428;-8.436;2022-10-31T05:43:04;100284.94;;;15.70;100.00
61318;BME280;47201;40.428;-8.436;2022-10-31T05:45:11;100290.16;;;15.71;100.00
61318;BME280;47201;40.428;-8.436;2022-10-31T05:47:20;100295.34;;;15.75;100.00
61318;BME280;47201;40.428;-8.436;2022-10-31T05:49:32;100283.97;;;15.73;100.00
61318;BME280;47201;40.428;-8.436;2022-10-31T05:52:08;100282.25;;;15.71;100.00
61318;BME280;47201;40.428;-8.436;2022-10-31T05:54:15;100270.88;;;15.71;100.00
61318;BME280;47201;40.428;-8.436;2022-10-31T05:56:17;100264.75;;;15.70;100.00
61318;BME280;47201;40.428;-8.436;2022-10-31T05:58:18;100261.09;;;15.75;100.00
61318;BME280;47201;40.428;-8.436;2022-10-31T06:00:28;100254.22;;;15.70;100.00
61318;BME280;47201;40.428;-8.436;2022-10-31T06:02:37;100240.28;;;15.65;100.00
61318;BME280;47201;40.428;-8.436;2022-10-31T06:04:58;100250.81;;;15.65;100.00
61318;BME280;47201;40.428;-8.436;2022-10-31T06:07:00;100244.78;;;15.62;100.00
61318;BME280;47201;40.428;-8.436;2022-10-31T06:09:01;100242.13;;;15.63;100.00
61318;BME280;47201;40.428;-8.436;2022-10-31T06:11:04;100248.31;;;15.61;100.00
61318;BME280;47201;40.428;-8.436;2022-10-31T06:13:24;100256.34;;;15.58;100.00
61318;BME280;47201;40.428;-8.436;2022-10-31T06:15:35;100252.81;;;15.57;100.00
61318;BME280;47201;40.428;-8.436;2022-10-31T06:17:36;100244.13;;;15.55;100.00
61318;BME280;47201;40.428;-8.436;2022-10-31T06:19:40;100249.38;;;15.55;100.00
61318;BME280;47201;40.428;-8.436;2022-10-31T06:21:41;100251.13;;;15.56;100.00
61318;BME280;47201;40.428;-8.436;2022-10-31T06:23:43;100247.59;;;15.55;100.00
61318;BME280;47201;40.428;-8.436;2022-10-31T06:26:17;100257.44;;;15.50;100.00
61318;BME280;47201;40.428;-8.436;2022-10-31T06:28:17;100256.53;;;15.50;100.00
61318;BME280;47201;40.428;-8.436;2022-10-31T06:30:33;100270.72;;;15.46;100.00
61318;BME280;47201;40.428;-8.436;2022-10-31T06:32:36;100269.06;;;15.43;100.00
61318;BME280;47201;40.428;-8.436;2022-10-31T06:34:38;100266.34;;;15.45;100.00
61318;BME280;47201;40.428;-8.436;2022-10-31T06:36:39;100287.38;;;15.46;100.00
61318;BME280;47201;40.428;-8.436;2022-10-31T06:38:40;100283.13;;;15.42;100.00
61318;BME280;47201;40.428;-8.436;2022-10-31T06:40:43;100289.28;;;15.41;100.00
61318;BME280;47201;40.428;-8.436;2022-10-31T06:43:04;100295.47;;;15.40;100.00
61318;BME280;47201;40.428;-8.436;2022-10-31T06:45:06;100287.50;;;15.42;100.00
61318;BME280;47201;40.428;-8.436;2022-10-31T06:47:25;100286.66;;;15.41;100.00
61318;BME280;47201;40.428;-8.436;2022-10-31T06:49:44;100288.38;;;15.42;100.00
61318;BME280;47201;40.428;-8.436;2022-10-31T06:51:50;100295.50;;;15.38;100.00
61318;BME280;47201;40.428;-8.436;2022-10-31T06:53:51;100294.47;;;15.44;100.00
61318;BME280;47201;40.428;-8.436;2022-10-31T06:55:52;100294.50;;;15.43;100.00
61318;BME280;47201;40.428;-8.436;2022-10-31T06:57:58;100304.97;;;15.46;100.00
61318;BME280;47201;40.428;-8.436;2022-10-31T06:59:59;100315.63;;;15.41;100.00
61318;BME280;47201;40.428;-8.436;2022-10-31T07:02:29;100303.38;;;15.40;100.00
61318;BME280;47201;40.428;-8.436;2022-10-31T07:04:30;100300.66;;;15.43;100.00
61318;BME280;47201;40.428;-8.436;2022-10-31T07:06:31;100305.94;;;15.42;100.00
61318;BME280;47201;40.428;-8.436;2022-10-31T07:08:32;100298.97;;;15.41;100.00
61318;BME280;47201;40.428;-8.436;2022-10-31T07:10:34;100293.72;;;15.41;100.00
61318;BME280;47201;40.428;-8.436;2022-10-31T07:12:37;100289.34;;;15.39;100.00
61318;BME280;47201;40.428;-8.436;2022-10-31T07:14:37;100288.44;;;15.41;100.00
61318;BME280;47201;40.428;-8.436;2022-10-31T07:16:40;100291.97;;;15.39;100.00
61318;BME280;47201;40.428;-8.436;2022-10-31T07:18:41;100276.97;;;15.42;100.00
61318;BME280;47201;40.428;-8.436;2022-10-31T07:20:43;100291.94;;;15.41;100.00
61318;BME280;47201;40.428;-8.436;2022-10-31T07:22:44;100276.19;;;15.39;100.00
61318;BME280;47201;40.428;-8.436;2022-10-31T07:24:45;100279.59;;;15.43;100.00
61318;BME280;47201;40.428;-8.436;2022-10-31T07:26:49;100275.16;;;15.44;100.00
61318;BME280;47201;40.428;-8.436;2022-10-31T07:28:50;100253.31;;;15.40;100.00
61318;BME280;47201;40.428;-8.436;2022-10-31T07:30:57;100282.34;;;15.38;100.00
61318;BME280;47201;40.428;-8.436;2022-10-31T07:32:58;100273.50;;;15.41;100.00
61318;BME280;47201;40.428;-8.436;2022-10-31T07:35:16;100279.59;;;15.42;100.00
61318;BME280;47201;40.428;-8.436;2022-10-31T07:37:21;100291.06;;;15.41;100.00
61318;BME280;47201;40.428;-8.436;2022-10-31T07:39:22;100298.97;;;15.41;100.00
61318;BME280;47201;40.428;-8.436;2022-10-31T07:41:23;100297.13;;;15.44;100.00
61318;BME280;47201;40.428;-8.436;2022-10-31T07:43:24;100297.97;;;15.45;100.00
61318;BME280;47201;40.428;-8.436;2022-10-31T07:45:43;100298.81;;;15.45;100.00
61318;BME280;47201;40.428;-8.436;2022-10-31T07:48:02;100295.25;;;15.48;100.00
61318;BME280;47201;40.428;-8.436;2022-10-31T07:50:23;100296.03;;;15.51;100.00
61318;BME280;47201;40.428;-8.436;2022-10-31T07:52:43;100307.28;;;15.57;100.00
61318;BME280;47201;40.428;-8.436;2022-10-31T07:54:58;100311.53;;;15.62;100.00
61318;BME280;47201;40.428;-8.436;2022-10-31T07:56:59;100308.06;;;15.60;100.00
61318;BME280;47201;40.428;-8.436;2022-10-31T07:59:00;100314.19;;;15.61;100.00
61318;BME280;47201;40.428;-8.436;2022-10-31T08:01:01;100309.75;;;15.63;100.00
61318;BME280;47201;40.428;-8.436;2022-10-31T08:03:13;100302.53;;;15.69;100.00
61318;BME280;47201;40.428;-8.436;2022-10-31T08:05:33;100303.19;;;15.76;100.00
61318;BME280;47201;40.428;-8.436;2022-10-31T08:08:04;100293.41;;;15.81;100.00
61318;BME280;47201;40.428;-8.436;2022-10-31T08:10:06;100315.31;;;15.85;100.00
61318;BME280;47201;40.428;-8.436;2022-10-31T08:12:08;100311.84;;;15.83;100.00
61318;BME280;47201;40.428;-8.436;2022-10-31T08:14:09;100313.47;;;15.87;100.00
61318;BME280;47201;40.428;-8.436;2022-10-31T08:16:10;100316.97;;;15.88;100.00
61318;BME280;47201;40.428;-8.436;2022-10-31T08:18:18;100316.78;;;15.94;100.00
61318;BME280;47201;40.428;-8.436;2022-10-31T08:20:20;100317.69;;;15.93;100.00
61318;BME280;47201;40.428;-8.436;2022-10-31T08:22:21;100327.09;;;16.01;100.00
61318;BME280;47201;40.428;-8.436;2022-10-31T08:24:23;100339.16;;;16.09;100.00
61318;BME280;47201;40.428;-8.436;2022-10-31T08:26:24;100337.41;;;16.09;100.00
61318;BME280;47201;40.428;-8.436;2022-10-31T08:28:27;100347.00;;;16.12;100.00
61318;BME280;47201;40.428;-8.436;2022-10-31T08:30:31;100342.63;;;16.11;100.00
61318;BME280;47201;40.428;-8.436;2022-10-31T08:33:05;100359.34;;;16.10;100.00
61318;BME280;47201;40.428;-8.436;2022-10-31T08:35:38;100353.09;;;16.14;100.00
61318;BME280;47201;40.428;-8.436;2022-10-31T08:37:59;100373.22;;;16.16;100.00
61318;BME280;47201;40.428;-8.436;2022-10-31T08:40:01;100365.38;;;16.15;100.00
61318;BME280;47201;40.428;-8.436;2022-10-31T08:42:07;100381.88;;;16.22;100.00
61318;BME280;47201;40.428;-8.436;2022-10-31T08:44:07;100387.91;;;16.25;100.00
61318;BME280;47201;40.428;-8.436;2022-10-31T08:46:08;100393.16;;;16.27;100.00
61318;BME280;47201;40.428;-8.436;2022-10-31T08:48:12;100394.66;;;16.36;100.00
61318;BME280;47201;40.428;-8.436;2022-10-31T08:50:16;100396.31;;;16.38;100.00
61318;BME280;47201;40.428;-8.436;2022-10-31T08:52:23;100396.91;;;16.48;100.00
61318;BME280;47201;40.428;-8.436;2022-10-31T08:54:31;100378.56;;;16.43;100.00
61318;BME280;47201;40.428;-8.436;2022-10-31T08:56:55;100394.59;;;16.65;100.00
61318;BME280;47201;40.428;-8.436;2022-10-31T08:59:13;100404.53;;;16.86;100.00
61318;BME280;47201;40.428;-8.436;2022-10-31T09:01:37;100417.94;;;17.06;100.00
61318;BME280;47201;40.428;-8.436;2022-10-31T09:03:41;100393.38;;;17.04;100.00
61318;BME280;47201;40.428;-8.436;2022-10-31T09:05:46;100414.81;;;17.20;100.00
61318;BME280;47201;40.428;-8.436;2022-10-31T09:07:51;100405.25;;;17.18;100.00
61318;BME280;47201;40.428;-8.436;2022-10-31T09:09:54;100401.69;;;17.19;100.00
61318;BME280;47201;40.428;-8.436;2022-10-31T09:11:56;100411.50;;;17.15;100.00
61318;BME280;47201;40.428;-8.436;2022-10-31T09:14:22;100406.34;;;17.10;100.00
61318;BME280;47201;40.428;-8.436;2022-10-31T09:16:46;100412.47;;;17.12;100.00
61318;BME280;47201;40.428;-8.436;2022-10-31T09:18:54;100436.84;;;17.21;100.00
61318;BME280;47201;40.428;-8.436;2022-10-31T09:20:57;100400.22;;;17.10;100.00
61318;BME280;47201;40.428;-8.436;2022-10-31T09:23:21;100422.66;;;17.23;100.00
61318;BME280;47201;40.428;-8.436;2022-10-31T09:25:28;100421.75;;;17.24;100.00
61318;BME280;47201;40.428;-8.436;2022-10-31T09:27:49;100421.00;;;17.21;100.00
61318;BME280;47201;40.428;-8.436;2022-10-31T09:29:50;100419.31;;;17.18;100.00
61318;BME280;47201;40.428;-8.436;2022-10-31T09:31:53;100409.97;;;17.08;100.00
61318;BME280;47201;40.428;-8.436;2022-10-31T09:34:05;100437.81;;;17.18;100.00
61318;BME280;47201;40.428;-8.436;2022-10-31T09:36:11;100422.56;;;17.00;100.00
61318;BME280;47201;40.428;-8.436;2022-10-31T09:38:17;100427.13;;;16.94;100.00
61318;BME280;47201;40.428;-8.436;2022-10-31T09:40:19;100427.34;;;16.87;100.00
61318;BME280;47201;40.428;-8.436;2022-10-31T09:45:06;100445.63;;;16.94;100.00
61318;BME280;47201;40.428;-8.436;2022-10-31T09:52:19;100437.75;;;16.93;100.00
61318;BME280;47201;40.428;-8.436;2022-10-31T09:54:49;100444.81;;;16.91;100.00
61318;BME280;47201;40.428;-8.436;2022-10-31T09:56:47;100462.22;;;16.98;100.00
61318;BME280;47201;40.428;-8.436;2022-10-31T09:58:53;100470.84;;;17.05;100.00
61318;BME280;47201;40.428;-8.436;2022-10-31T10:00:58;100473.47;;;17.05;100.00
61318;BME280;47201;40.428;-8.436;2022-10-31T10:03:26;100482.09;;;17.10;100.00
61318;BME280;47201;40.428;-8.436;2022-10-31T10:05:39;100489.31;;;17.05;100.00
61318;BME280;47201;40.428;-8.436;2022-10-31T10:07:58;100487.81;;;16.96;100.00
61318;BME280;47201;40.428;-8.436;2022-10-31T10:20:20;100493.72;;;17.04;100.00
61318;BME280;47201;40.428;-8.436;2022-10-31T10:25:02;100494.97;;;17.21;100.00
61318;BME280;47201;40.428;-8.436;2022-10-31T10:31:51;100493.97;;;17.77;100.00
61318;BME280;47201;40.428;-8.436;2022-10-31T10:36:14;100503.81;;;17.99;100.00
61318;BME280;47201;40.428;-8.436;2022-10-31T10:38:32;100511.66;;;18.02;100.00
61318;BME280;47201;40.428;-8.436;2022-10-31T10:40:35;100516.75;;;18.06;100.00
61318;BME280;47201;40.428;-8.436;2022-10-31T10:42:37;100518.22;;;18.15;100.00
61318;BME280;47201;40.428;-8.436;2022-10-31T10:44:57;100523.97;;;18.27;100.00
61318;BME280;47201;40.428;-8.436;2022-10-31T10:47:16;100520.72;;;18.18;100.00
61318;BME280;47201;40.428;-8.436;2022-10-31T10:49:50;100534.13;;;18.14;100.00
61318;BME280;47201;40.428;-8.436;2022-10-31T10:52:19;100536.19;;;18.05;100.00
61318;BME280;47201;40.428;-8.436;2022-10-31T10:56:33;100531.22;;;17.95;100.00
61318;BME280;47201;40.428;-8.436;2022-10-31T10:58:39;100526.97;;;17.90;100.00
61318;BME280;47201;40.428;-8.436;2022-10-31T11:00:44;100535.88;;;17.88;100.00
61318;BME280;47201;40.428;-8.436;2022-10-31T11:02:50;100530.84;;;17.80;100.00
61318;BME280;47201;40.428;-8.436;2022-10-31T11:04:56;100523.78;;;17.81;100.00
61318;BME280;47201;40.428;-8.436;2022-10-31T11:09:11;100538.38;;;17.92;100.00
61318;BME280;47201;40.428;-8.436;2022-10-31T11:11:27;100538.88;;;18.04;100.00
61318;BME280;47201;40.428;-8.436;2022-10-31T11:13:31;100535.09;;;18.11;100.00
61318;BME280;47201;40.428;-8.436;2022-10-31T11:15:37;100547.09;;;18.21;100.00
61318;BME280;47201;40.428;-8.436;2022-10-31T11:17:54;100526.53;;;18.28;100.00
61318;BME280;47201;40.428;-8.436;2022-10-31T11:20:24;100537.44;;;18.44;100.00
61318;BME280;47201;40.428;-8.436;2022-10-31T11:22:23;100539.84;;;18.50;100.00
61318;BME280;47201;40.428;-8.436;2022-10-31T11:24:25;100542.41;;;18.53;100.00
61318;BME280;47201;40.428;-8.436;2022-10-31T11:26:27;100532.72;;;18.52;100.00
61318;BME280;47201;40.428;-8.436;2022-10-31T11:28:31;100526.53;;;18.53;100.00
61318;BME280;47201;40.428;-8.436;2022-10-31T11:30:43;100541.25;;;18.61;100.00
61318;BME280;47201;40.428;-8.436;2022-10-31T11:32:49;100555.97;;;18.68;100.00
61318;BME280;47201;40.428;-8.436;2022-10-31T11:34:56;100553.28;;;18.69;100.00
61318;BME280;47201;40.428;-8.436;2022-10-31T11:37:22;100540.28;;;18.85;100.00
61318;BME280;47201;40.428;-8.436;2022-10-31T11:39:24;100550.81;;;19.11;100.00
61318;BME280;47201;40.428;-8.436;2022-10-31T11:41:36;100538.41;;;19.56;100.00
61318;BME280;47201;40.428;-8.436;2022-10-31T11:43:59;100552.38;;;20.23;100.00
61318;BME280;47201;40.428;-8.436;2022-10-31T11:46:14;100549.78;;;20.61;100.00
61318;BME280;47201;40.428;-8.436;2022-10-31T11:48:18;100550.56;;;20.84;100.00
61318;BME280;47201;40.428;-8.436;2022-10-31T11:50:25;100549.22;;;21.12;100.00
61318;BME280;47201;40.428;-8.436;2022-10-31T11:52:28;100556.22;;;21.68;100.00